sensor_id;sensor_type;location;lat;lon;timestamp;pressure;altitude;pressure_sealevel;temperature;humidity
62680;BME280;68213;40.528;44.712;2023-02-28T00:00:08;81224.81;;;-4.13;52.70
62680;BME280;68213;40.528;44.712;2023-02-28T00:01:12;81218.94;;;-4.14;52.72
62680;BME280;68213;40.528;44.712;2023-02-28T00:02:13;81223.59;;;-4.12;53.22
62680;BME280;68213;40.528;44.712;2023-02-28T00:03:14;81220.13;;;-4.15;53.53
62680;BME280;68213;40.528;44.712;2023-02-28T00:04:15;81219.44;;;-4.16;54.37
62680;BME280;68213;40.528;44.712;2023-02-28T00:05:18;81222.94;;;-4.19;55.28
62680;BME280;68213;40.528;44.712;2023-02-28T00:06:19;81220.16;;;-4.21;55.83
62680;BME280;68213;40.528;44.712;2023-02-28T00:07:22;81220.84;;;-4.20;56.69
62680;BME280;68213;40.528;44.712;2023-02-28T00:08:23;81219.03;;;-4.25;56.66
62680;BME280;68213;40.528;44.712;2023-02-28T00:09:24;81224.38;;;-4.23;56.68
62680;BME280;68213;40.528;44.712;2023-02-28T00:10:27;81201.81;;;-4.36;57.00
62680;BME280;68213;40.528;44.712;2023-02-28T00:11:28;81220.41;;;-4.24;56.83
62680;BME280;68213;40.528;44.712;2023-02-28T00:12:28;81217.16;;;-4.25;56.75
62680;BME280;68213;40.528;44.712;2023-02-28T00:13:33;81215.50;;;-4.28;56.28
62680;BME280;68213;40.528;44.712;2023-02-28T00:14:34;81203.44;;;-4.39;55.94
62680;BME280;68213;40.528;44.712;2023-02-28T00:15:37;81191.34;;;-4.50;56.48
62680;BME280;68213;40.528;44.712;2023-02-28T00:16:38;81211.34;;;-4.31;56.90
62680;BME280;68213;40.528;44.712;2023-02-28T00:17:38;81207.63;;;-4.36;57.25
62680;BME280;68213;40.528;44.712;2023-02-28T00:18:39;81208.38;;;-4.41;57.77
62680;BME280;68213;40.528;44.712;2023-02-28T00:19:40;81197.69;;;-4.51;58.06
62680;BME280;68213;40.528;44.712;2023-02-28T00:20:40;81210.50;;;-4.51;58.45
62680;BME280;68213;40.528;44.712;2023-02-28T00:21:41;81203.50;;;-4.50;58.40
62680;BME280;68213;40.528;44.712;2023-02-28T00:22:48;81178.19;;;-4.76;59.83
62680;BME280;68213;40.528;44.712;2023-02-28T00:23:48;81200.75;;;-4.58;58.89
62680;BME280;68213;40.528;44.712;2023-02-28T00:24:49;81203.84;;;-4.82;60.44
62680;BME280;68213;40.528;44.712;2023-02-28T00:25:50;81178.03;;;-4.96;59.72
62680;BME280;68213;40.528;44.712;2023-02-28T00:26:51;81188.22;;;-4.79;59.79
62680;BME280;68213;40.528;44.712;2023-02-28T00:27:52;81202.41;;;-4.66;60.05
62680;BME280;68213;40.528;44.712;2023-02-28T00:28:53;81199.59;;;-4.63;59.13
62680;BME280;68213;40.528;44.712;2023-02-28T00:29:53;81203.53;;;-4.56;58.12
62680;BME280;68213;40.528;44.712;2023-02-28T00:30:54;81207.72;;;-4.53;57.72
62680;BME280;68213;40.528;44.712;2023-02-28T00:31:55;81177.97;;;-4.79;56.35
62680;BME280;68213;40.528;44.712;2023-02-28T00:32:55;81212.84;;;-4.47;54.58
62680;BME280;68213;40.528;44.712;2023-02-28T00:33:56;81208.63;;;-4.44;54.13
62680;BME280;68213;40.528;44.712;2023-02-28T00:34:57;81207.44;;;-4.43;53.35
62680;BME280;68213;40.528;44.712;2023-02-28T00:36:15;81201.34;;;-4.40;53.67
62680;BME280;68213;40.528;44.712;2023-02-28T00:37:16;81206.72;;;-4.38;53.97
62680;BME280;68213;40.528;44.712;2023-02-28T00:38:17;81207.41;;;-4.38;54.15
62680;BME280;68213;40.528;44.712;2023-02-28T00:39:17;81209.53;;;-4.42;54.64
62680;BME280;68213;40.528;44.712;2023-02-28T00:40:18;81205.56;;;-4.43;54.89
62680;BME280;68213;40.528;44.712;2023-02-28T00:41:19;81203.69;;;-4.42;55.07
62680;BME280;68213;40.528;44.712;2023-02-28T00:42:20;81210.00;;;-4.43;55.79
62680;BME280;68213;40.528;44.712;2023-02-28T00:43:20;81208.63;;;-4.44;55.43
62680;BME280;68213;40.528;44.712;2023-02-28T00:44:21;81207.69;;;-4.47;55.93
62680;BME280;68213;40.528;44.712;2023-02-28T00:45:22;81206.50;;;-4.46;55.93
62680;BME280;68213;40.528;44.712;2023-02-28T00:46:22;81185.34;;;-4.58;55.95
62680;BME280;68213;40.528;44.712;2023-02-28T00:47:23;81200.69;;;-4.47;55.68
62680;BME280;68213;40.528;44.712;2023-02-28T00:48:24;81202.09;;;-4.46;56.55
62680;BME280;68213;40.528;44.712;2023-02-28T00:49:25;81204.41;;;-4.48;56.63
62680;BME280;68213;40.528;44.712;2023-02-28T00:50:26;81202.81;;;-4.51;56.33
62680;BME280;68213;40.528;44.712;2023-02-28T00:51:27;81196.50;;;-4.50;55.75
62680;BME280;68213;40.528;44.712;2023-02-28T00:52:27;81205.59;;;-4.49;55.75
62680;BME280;68213;40.528;44.712;2023-02-28T00:53:28;81200.44;;;-4.49;56.13
62680;BME280;68213;40.528;44.712;2023-02-28T00:54:29;81200.25;;;-4.51;56.56
62680;BME280;68213;40.528;44.712;2023-02-28T00:55:30;81201.63;;;-4.50;57.03
62680;BME280;68213;40.528;44.712;2023-02-28T00:56:30;81199.53;;;-4.51;56.66
62680;BME280;68213;40.528;44.712;2023-02-28T00:57:31;81203.97;;;-4.52;57.16
62680;BME280;68213;40.528;44.712;2023-02-28T00:58:32;81202.34;;;-4.49;57.25
62680;BME280;68213;40.528;44.712;2023-02-28T00:59:32;81204.19;;;-4.50;56.50
62680;BME280;68213;40.528;44.712;2023-02-28T01:00:33;81210.72;;;-4.49;56.63
62680;BME280;68213;40.528;44.712;2023-02-28T01:01:34;81203.25;;;-4.47;56.90
62680;BME280;68213;40.528;44.712;2023-02-28T01:02:34;81202.56;;;-4.47;56.48
62680;BME280;68213;40.528;44.712;2023-02-28T01:03:35;81203.03;;;-4.49;56.47
62680;BME280;68213;40.528;44.712;2023-02-28T01:04:36;81203.25;;;-4.47;57.63
62680;BME280;68213;40.528;44.712;2023-02-28T01:05:36;81201.44;;;-4.57;56.50
62680;BME280;68213;40.528;44.712;2023-02-28T01:06:37;81204.91;;;-4.55;57.02
62680;BME280;68213;40.528;44.712;2023-02-28T01:07:38;81201.41;;;-4.52;57.15
62680;BME280;68213;40.528;44.712;2023-02-28T01:08:39;81208.16;;;-4.49;56.63
62680;BME280;68213;40.528;44.712;2023-02-28T01:09:40;81204.66;;;-4.46;56.43
62680;BME280;68213;40.528;44.712;2023-02-28T01:10:41;81179.09;;;-4.68;55.45
62680;BME280;68213;40.528;44.712;2023-02-28T01:11:42;81209.31;;;-4.44;55.02
62680;BME280;68213;40.528;44.712;2023-02-28T01:12:44;81211.19;;;-4.44;54.97
62680;BME280;68213;40.528;44.712;2023-02-28T01:13:45;81208.63;;;-4.44;55.83
62680;BME280;68213;40.528;44.712;2023-02-28T01:14:46;81206.50;;;-4.46;56.33
62680;BME280;68213;40.528;44.712;2023-02-28T01:15:52;81203.94;;;-4.46;55.56
62680;BME280;68213;40.528;44.712;2023-02-28T01:16:53;81203.25;;;-4.47;55.52
62680;BME280;68213;40.528;44.712;2023-02-28T01:17:53;81207.22;;;-4.46;54.32
62680;BME280;68213;40.528;44.712;2023-02-28T01:18:54;81208.63;;;-4.44;54.61
62680;BME280;68213;40.528;44.712;2023-02-28T01:19:55;81205.81;;;-4.47;54.58
62680;BME280;68213;40.528;44.712;2023-02-28T01:20:56;81205.38;;;-4.51;55.97
62680;BME280;68213;40.528;44.712;2023-02-28T01:21:56;81199.78;;;-4.55;57.49
62680;BME280;68213;40.528;44.712;2023-02-28T01:22:57;81211.63;;;-4.46;55.90
62680;BME280;68213;40.528;44.712;2023-02-28T01:23:58;81207.00;;;-4.48;54.72
62680;BME280;68213;40.528;44.712;2023-02-28T01:24:59;81208.16;;;-4.49;54.65
62680;BME280;68213;40.528;44.712;2023-02-28T01:26:12;81207.69;;;-4.47;55.03
62680;BME280;68213;40.528;44.712;2023-02-28T01:27:13;81200.00;;;-4.47;55.39
62680;BME280;68213;40.528;44.712;2023-02-28T01:28:14;81209.56;;;-4.48;55.30
62680;BME280;68213;40.528;44.712;2023-02-28T01:29:15;81202.59;;;-4.53;55.51
62680;BME280;68213;40.528;44.712;2023-02-28T01:30:15;81209.56;;;-4.48;56.08
62680;BME280;68213;40.528;44.712;2023-02-28T01:31:16;81211.44;;;-4.48;56.01
62680;BME280;68213;40.528;44.712;2023-02-28T01:32:18;81207.47;;;-4.49;56.60
62680;BME280;68213;40.528;44.712;2023-02-28T01:33:19;81214.94;;;-4.51;56.46
62680;BME280;68213;40.528;44.712;2023-02-28T01:34:19;81209.13;;;-4.52;56.35
62680;BME280;68213;40.528;44.712;2023-02-28T01:35:20;81213.09;;;-4.51;55.81
62680;BME280;68213;40.528;44.712;2023-02-28T01:36:22;81207.47;;;-4.49;56.39
62680;BME280;68213;40.528;44.712;2023-02-28T01:37:23;81195.41;;;-4.66;56.55
62680;BME280;68213;40.528;44.712;2023-02-28T01:38:24;81208.88;;;-4.54;55.97
62680;BME280;68213;40.528;44.712;2023-02-28T01:39:26;81207.25;;;-4.57;56.31
62680;BME280;68213;40.528;44.712;2023-02-28T01:40:27;81209.38;;;-4.55;58.60
62680;BME280;68213;40.528;44.712;2023-02-28T01:41:31;81207.25;;;-4.57;56.93
62680;BME280;68213;40.528;44.712;2023-02-28T01:42:32;81199.81;;;-4.60;57.81
62680;BME280;68213;40.528;44.712;2023-02-28T01:45:02;81216.91;;;-4.74;58.44
62680;BME280;68213;40.528;44.712;2023-02-28T01:46:03;81218.50;;;-4.71;58.37
62680;BME280;68213;40.528;44.712;2023-02-28T01:47:04;81218.75;;;-4.69;58.50
62680;BME280;68213;40.528;44.712;2023-02-28T01:48:07;81210.34;;;-4.70;57.97
62680;BME280;68213;40.528;44.712;2023-02-28T01:49:12;81196.41;;;-4.80;57.69
62680;BME280;68213;40.528;44.712;2023-02-28T01:50:21;81218.72;;;-4.64;57.39
62680;BME280;68213;40.528;44.712;2023-02-28T01:51:49;81218.91;;;-4.56;58.06
62680;BME280;68213;40.528;44.712;2023-02-28T01:52:59;81228.25;;;-4.53;57.86
62680;BME280;68213;40.528;44.712;2023-02-28T01:54:07;81221.94;;;-4.52;58.65
62680;BME280;68213;40.528;44.712;2023-02-28T01:55:15;81220.78;;;-4.51;58.61
62680;BME280;68213;40.528;44.712;2023-02-28T01:56:27;81192.66;;;-4.73;57.36
62680;BME280;68213;40.528;44.712;2023-02-28T01:57:33;81222.88;;;-4.49;56.18
62680;BME280;68213;40.528;44.712;2023-02-28T01:58:37;81217.97;;;-4.53;55.77
62680;BME280;68213;40.528;44.712;2023-02-28T02:00:24;81218.41;;;-4.49;55.44
62680;BME280;68213;40.528;44.712;2023-02-28T02:01:05;81219.59;;;-4.50;56.26
62680;BME280;68213;40.528;44.712;2023-02-28T02:02:05;81220.53;;;-4.47;56.64
62680;BME280;68213;40.528;44.712;2023-02-28T02:03:08;81219.81;;;-4.48;56.47
62680;BME280;68213;40.528;44.712;2023-02-28T02:04:11;81223.56;;;-4.49;55.53
62680;BME280;68213;40.528;44.712;2023-02-28T02:05:30;81223.09;;;-4.47;55.85
62680;BME280;68213;40.528;44.712;2023-02-28T02:06:42;81219.13;;;-4.48;55.64
62680;BME280;68213;40.528;44.712;2023-02-28T02:07:46;81220.06;;;-4.51;55.46
62680;BME280;68213;40.528;44.712;2023-02-28T02:08:47;81207.75;;;-4.58;55.44
62680;BME280;68213;40.528;44.712;2023-02-28T02:09:48;81219.59;;;-4.50;55.41
62680;BME280;68213;40.528;44.712;2023-02-28T02:10:50;81219.59;;;-4.50;54.90
62680;BME280;68213;40.528;44.712;2023-02-28T02:11:55;81206.56;;;-4.52;54.27
62680;BME280;68213;40.528;44.712;2023-02-28T02:14:57;81219.59;;;-4.50;55.22
62680;BME280;68213;40.528;44.712;2023-02-28T02:16:08;81210.75;;;-4.54;57.14
62680;BME280;68213;40.528;44.712;2023-02-28T02:17:32;81217.75;;;-4.55;58.10
62680;BME280;68213;40.528;44.712;2023-02-28T02:24:05;81222.00;;;-4.69;59.58
62680;BME280;68213;40.528;44.712;2023-02-28T02:37:27;81232.56;;;-4.84;61.48
62680;BME280;68213;40.528;44.712;2023-02-28T02:38:50;81240.00;;;-4.86;60.57
62680;BME280;68213;40.528;44.712;2023-02-28T02:40:08;81241.41;;;-4.85;60.02
62680;BME280;68213;40.528;44.712;2023-02-28T02:41:23;81245.13;;;-4.86;59.92
62680;BME280;68213;40.528;44.712;2023-02-28T02:42:38;81252.38;;;-4.84;59.54
62680;BME280;68213;40.528;44.712;2023-02-28T02:44:18;81249.09;;;-4.85;59.77
62680;BME280;68213;40.528;44.712;2023-02-28T02:45:33;81251.66;;;-4.85;60.27
62680;BME280;68213;40.528;44.712;2023-02-28T02:46:47;81243.28;;;-4.85;60.97
62680;BME280;68213;40.528;44.712;2023-02-28T02:47:49;81250.28;;;-4.86;60.52
62680;BME280;68213;40.528;44.712;2023-02-28T02:48:54;81248.88;;;-4.87;60.40
62680;BME280;68213;40.528;44.712;2023-02-28T02:50:00;81257.03;;;-4.83;60.48
62680;BME280;68213;40.528;44.712;2023-02-28T02:51:13;81249.09;;;-4.85;61.36
62680;BME280;68213;40.528;44.712;2023-02-28T02:52:18;81250.50;;;-4.84;61.48
62680;BME280;68213;40.528;44.712;2023-02-28T02:53:27;81245.84;;;-4.91;61.26
62680;BME280;68213;40.528;44.712;2023-02-28T02:54:34;81250.97;;;-4.85;61.44
62680;BME280;68213;40.528;44.712;2023-02-28T02:55:39;81250.75;;;-4.99;61.68
62680;BME280;68213;40.528;44.712;2023-02-28T02:56:44;81255.00;;;-5.18;63.88
62680;BME280;68213;40.528;44.712;2023-02-28T02:57:52;81250.81;;;-5.21;64.16
62680;BME280;68213;40.528;44.712;2023-02-28T02:58:57;81262.69;;;-5.24;65.05
62680;BME280;68213;40.528;44.712;2023-02-28T03:00:03;81257.81;;;-5.22;64.36
62680;BME280;68213;40.528;44.712;2023-02-28T03:01:05;81253.88;;;-5.29;64.00
62680;BME280;68213;40.528;44.712;2023-02-28T03:02:11;81262.25;;;-5.28;64.71
62680;BME280;68213;40.528;44.712;2023-02-28T03:03:13;81259.22;;;-5.21;64.18
62680;BME280;68213;40.528;44.712;2023-02-28T03:04:20;81253.59;;;-5.19;63.92
62680;BME280;68213;40.528;44.712;2023-02-28T03:05:26;81221.03;;;-5.42;63.87
62680;BME280;68213;40.528;44.712;2023-02-28T03:06:27;81251.28;;;-5.12;64.00
62680;BME280;68213;40.528;44.712;2023-02-28T03:07:28;81249.63;;;-5.15;64.06
62680;BME280;68213;40.528;44.712;2023-02-28T03:08:33;81252.69;;;-5.11;63.86
62680;BME280;68213;40.528;44.712;2023-02-28T03:09:34;81237.53;;;-5.26;63.14
62680;BME280;68213;40.528;44.712;2023-02-28T03:10:46;81258.00;;;-5.08;63.98
62680;BME280;68213;40.528;44.712;2023-02-28T03:11:50;81263.63;;;-5.16;64.83
62680;BME280;68213;40.528;44.712;2023-02-28T03:13:04;81251.31;;;-5.29;65.87
62680;BME280;68213;40.528;44.712;2023-02-28T03:15:29;81255.72;;;-5.18;65.40
62680;BME280;68213;40.528;44.712;2023-02-28T03:17:00;81258.97;;;-5.17;65.34
62680;BME280;68213;40.528;44.712;2023-02-28T03:18:10;81256.16;;;-5.19;65.34
62680;BME280;68213;40.528;44.712;2023-02-28T03:23:03;81268.97;;;-5.19;66.21
62680;BME280;68213;40.528;44.712;2023-02-28T03:25:56;81262.94;;;-5.22;66.55
62680;BME280;68213;40.528;44.712;2023-02-28T03:27:07;81268.06;;;-5.22;65.98
62680;BME280;68213;40.528;44.712;2023-02-28T03:29:23;81243.38;;;-5.36;64.88
62680;BME280;68213;40.528;44.712;2023-02-28T03:31:39;81248.50;;;-5.36;65.04
62680;BME280;68213;40.528;44.712;2023-02-28T03:32:51;81238.03;;;-5.44;64.97
62680;BME280;68213;40.528;44.712;2023-02-28T03:34:13;81263.16;;;-5.20;65.59
62680;BME280;68213;40.528;44.712;2023-02-28T03:35:23;81265.72;;;-5.20;65.47
62680;BME280;68213;40.528;44.712;2023-02-28T03:36:29;81262.69;;;-5.18;65.78
62680;BME280;68213;40.528;44.712;2023-02-28T03:37:31;81262.00;;;-5.19;65.58
62680;BME280;68213;40.528;44.712;2023-02-28T03:38:49;81244.53;;;-5.32;66.39
62680;BME280;68213;40.528;44.712;2023-02-28T03:40:05;81269.91;;;-5.17;66.58
62680;BME280;68213;40.528;44.712;2023-02-28T03:41:22;81261.75;;;-5.15;65.82
62680;BME280;68213;40.528;44.712;2023-02-28T03:42:34;81262.00;;;-5.19;65.67
62680;BME280;68213;40.528;44.712;2023-02-28T03:43:40;81263.16;;;-5.20;65.76
62680;BME280;68213;40.528;44.712;2023-02-28T03:44:53;81268.78;;;-5.21;65.92
62680;BME280;68213;40.528;44.712;2023-02-28T03:45:55;81260.59;;;-5.20;66.31
62680;BME280;68213;40.528;44.712;2023-02-28T03:48:12;81264.34;;;-5.21;66.01
62680;BME280;68213;40.528;44.712;2023-02-28T03:49:22;81261.28;;;-5.19;65.97
62680;BME280;68213;40.528;44.712;2023-02-28T03:50:29;81264.78;;;-5.17;66.51
62680;BME280;68213;40.528;44.712;2023-02-28T03:51:32;81263.41;;;-5.18;65.81
62680;BME280;68213;40.528;44.712;2023-02-28T03:52:43;81261.06;;;-5.16;65.23
62680;BME280;68213;40.528;44.712;2023-02-28T03:53:50;81267.59;;;-5.15;65.14
62680;BME280;68213;40.528;44.712;2023-02-28T03:54:56;81270.38;;;-5.13;66.23
62680;BME280;68213;40.528;44.712;2023-02-28T03:56:17;81268.06;;;-5.11;66.59
62680;BME280;68213;40.528;44.712;2023-02-28T03:57:26;81268.75;;;-5.10;65.78
62680;BME280;68213;40.528;44.712;2023-02-28T03:59:47;81271.06;;;-5.06;66.49
62680;BME280;68213;40.528;44.712;2023-02-28T04:00:55;81272.47;;;-5.05;66.25
62680;BME280;68213;40.528;44.712;2023-02-28T04:01:58;81272.47;;;-5.05;65.76
62680;BME280;68213;40.528;44.712;2023-02-28T04:02:59;81266.19;;;-5.04;65.93
62680;BME280;68213;40.528;44.712;2023-02-28T04:04:00;81272.47;;;-5.00;66.15
62680;BME280;68213;40.528;44.712;2023-02-28T04:05:04;81274.56;;;-4.98;65.99
62680;BME280;68213;40.528;44.712;2023-02-28T04:06:07;81273.16;;;-4.99;65.37
62680;BME280;68213;40.528;44.712;2023-02-28T04:07:11;81243.81;;;-5.21;65.25
62680;BME280;68213;40.528;44.712;2023-02-28T04:08:12;81278.72;;;-4.95;65.20
62680;BME280;68213;40.528;44.712;2023-02-28T04:09:18;81267.34;;;-5.00;65.34
62680;BME280;68213;40.528;44.712;2023-02-28T04:10:19;81270.59;;;-4.99;65.77
62680;BME280;68213;40.528;44.712;2023-02-28T04:12:35;81272.91;;;-4.96;65.84
62680;BME280;68213;40.528;44.712;2023-02-28T04:13:36;81272.66;;;-4.92;65.97
62680;BME280;68213;40.528;44.712;2023-02-28T04:14:37;81280.84;;;-4.88;66.06
62680;BME280;68213;40.528;44.712;2023-02-28T04:15:38;81279.88;;;-4.85;66.01
62680;BME280;68213;40.528;44.712;2023-02-28T04:16:40;81280.34;;;-4.81;66.14
62680;BME280;68213;40.528;44.712;2023-02-28T04:17:41;81275.44;;;-4.79;66.37
62680;BME280;68213;40.528;44.712;2023-02-28T04:18:42;81278.00;;;-4.73;66.61
62680;BME280;68213;40.528;44.712;2023-02-28T04:19:45;81276.34;;;-4.76;65.90
62680;BME280;68213;40.528;44.712;2023-02-28T04:20:46;81281.47;;;-4.70;66.07
62680;BME280;68213;40.528;44.712;2023-02-28T04:21:52;81280.75;;;-4.65;65.00
62680;BME280;68213;40.528;44.712;2023-02-28T04:22:53;81274.00;;;-4.68;64.47
62680;BME280;68213;40.528;44.712;2023-02-28T04:23:54;81276.81;;;-4.72;65.53
62680;BME280;68213;40.528;44.712;2023-02-28T04:24:54;81281.00;;;-4.63;65.62
62680;BME280;68213;40.528;44.712;2023-02-28T04:25:55;81284.72;;;-4.58;66.03
62680;BME280;68213;40.528;44.712;2023-02-28T04:26:57;81284.47;;;-4.55;66.08
62680;BME280;68213;40.528;44.712;2023-02-28T04:28:02;81277.00;;;-4.53;66.66
62680;BME280;68213;40.528;44.712;2023-02-28T04:29:05;81274.88;;;-4.49;67.28
62680;BME280;68213;40.528;44.712;2023-02-28T04:30:06;81283.97;;;-4.42;68.38
62680;BME280;68213;40.528;44.712;2023-02-28T04:31:09;81278.16;;;-4.48;67.57
62680;BME280;68213;40.528;44.712;2023-02-28T04:32:10;81283.72;;;-4.38;68.38
62680;BME280;68213;40.528;44.712;2023-02-28T04:33:11;81279.75;;;-4.34;68.81
62680;BME280;68213;40.528;44.712;2023-02-28T04:34:12;81287.41;;;-4.28;68.47
62680;BME280;68213;40.528;44.712;2023-02-28T04:35:12;81278.56;;;-4.33;68.68
62680;BME280;68213;40.528;44.712;2023-02-28T04:36:13;81286.72;;;-4.34;69.54
62680;BME280;68213;40.528;44.712;2023-02-28T04:37:14;81281.13;;;-4.33;70.40
62680;BME280;68213;40.528;44.712;2023-02-28T04:38:15;81284.13;;;-4.23;69.50
62680;BME280;68213;40.528;44.712;2023-02-28T04:39:18;81284.78;;;-4.11;69.55
62680;BME280;68213;40.528;44.712;2023-02-28T04:40:19;81284.72;;;-4.05;69.75
62680;BME280;68213;40.528;44.712;2023-02-28T04:41:20;81290.81;;;-4.03;68.87
62680;BME280;68213;40.528;44.712;2023-02-28T04:42:21;81284.91;;;-3.92;68.60
62680;BME280;68213;40.528;44.712;2023-02-28T04:43:21;81289.75;;;-3.83;68.41
62680;BME280;68213;40.528;44.712;2023-02-28T04:44:22;81284.13;;;-3.75;68.88
62680;BME280;68213;40.528;44.712;2023-02-28T04:45:23;81294.59;;;-3.68;69.03
62680;BME280;68213;40.528;44.712;2023-02-28T04:46:24;81289.63;;;-3.60;68.84
62680;BME280;68213;40.528;44.712;2023-02-28T04:47:24;81298.22;;;-3.52;70.13
62680;BME280;68213;40.528;44.712;2023-02-28T04:48:27;81296.78;;;-3.41;70.31
62680;BME280;68213;40.528;44.712;2023-02-28T04:49:28;81296.25;;;-3.34;69.55
62680;BME280;68213;40.528;44.712;2023-02-28T04:50:29;81295.03;;;-3.27;70.89
62680;BME280;68213;40.528;44.712;2023-02-28T04:51:32;81281.75;;;-3.31;70.92
62680;BME280;68213;40.528;44.712;2023-02-28T04:52:32;81303.16;;;-3.17;71.95
62680;BME280;68213;40.528;44.712;2023-02-28T04:53:33;81292.13;;;-3.12;71.12
62680;BME280;68213;40.528;44.712;2023-02-28T04:54:34;81291.13;;;-3.04;71.61
62680;BME280;68213;40.528;44.712;2023-02-28T04:55:35;81299.19;;;-3.19;66.85
62680;BME280;68213;40.528;44.712;2023-02-28T04:56:36;81291.03;;;-3.23;67.07
62680;BME280;68213;40.528;44.712;2023-02-28T04:57:37;81282.50;;;-3.37;68.49
62680;BME280;68213;40.528;44.712;2023-02-28T04:58:37;81279.69;;;-3.39;69.89
62680;BME280;68213;40.528;44.712;2023-02-28T04:59:38;81299.63;;;-3.14;69.00
62680;BME280;68213;40.528;44.712;2023-02-28T05:00:39;81297.91;;;-3.06;70.47
62680;BME280;68213;40.528;44.712;2023-02-28T05:01:45;81295.56;;;-3.04;69.24
62680;BME280;68213;40.528;44.712;2023-02-28T05:02:46;81293.16;;;-2.96;70.47
62680;BME280;68213;40.528;44.712;2023-02-28T05:03:48;81300.34;;;-2.89;69.42
62680;BME280;68213;40.528;44.712;2023-02-28T05:04:49;81302.63;;;-2.80;69.42
62680;BME280;68213;40.528;44.712;2023-02-28T05:05:49;81300.69;;;-2.74;70.62
62680;BME280;68213;40.528;44.712;2023-02-28T05:06:50;81296.69;;;-2.69;70.28
62680;BME280;68213;40.528;44.712;2023-02-28T05:07:51;81294.75;;;-2.63;70.11
62680;BME280;68213;40.528;44.712;2023-02-28T05:08:52;81274.00;;;-2.71;69.93
62680;BME280;68213;40.528;44.712;2023-02-28T05:09:53;81286.94;;;-2.51;70.03
62680;BME280;68213;40.528;44.712;2023-02-28T05:10:53;81289.47;;;-2.46;69.74
62680;BME280;68213;40.528;44.712;2023-02-28T05:11:54;81288.75;;;-2.46;69.48
62680;BME280;68213;40.528;44.712;2023-02-28T05:12:55;81294.13;;;-2.44;69.55
62680;BME280;68213;40.528;44.712;2023-02-28T05:13:56;81292.19;;;-2.38;69.33
62680;BME280;68213;40.528;44.712;2023-02-28T05:14:57;81293.09;;;-2.35;69.35
62680;BME280;68213;40.528;44.712;2023-02-28T05:15:57;81295.63;;;-2.30;69.15
62680;BME280;68213;40.528;44.712;2023-02-28T05:16:58;81297.22;;;-2.27;69.31
62680;BME280;68213;40.528;44.712;2023-02-28T05:17:59;81292.56;;;-2.28;69.29
62680;BME280;68213;40.528;44.712;2023-02-28T05:18:59;81290.69;;;-2.28;69.47
62680;BME280;68213;40.528;44.712;2023-02-28T05:20:03;81296.25;;;-2.24;69.94
62680;BME280;68213;40.528;44.712;2023-02-28T05:21:05;81293.63;;;-2.18;69.02
62680;BME280;68213;40.528;44.712;2023-02-28T05:22:13;81268.41;;;-2.25;69.12
62680;BME280;68213;40.528;44.712;2023-02-28T05:23:15;81268.13;;;-2.21;68.59
62680;BME280;68213;40.528;44.712;2023-02-28T05:24:18;81282.28;;;-2.09;68.25
62680;BME280;68213;40.528;44.712;2023-02-28T05:25:23;81293.28;;;-1.89;68.09
62680;BME280;68213;40.528;44.712;2023-02-28T05:26:25;81296.53;;;-1.83;67.75
62680;BME280;68213;40.528;44.712;2023-02-28T05:27:26;81286.84;;;-1.77;67.56
62680;BME280;68213;40.528;44.712;2023-02-28T05:28:31;81287.53;;;-1.77;67.02
62680;BME280;68213;40.528;44.712;2023-02-28T05:29:32;81290.19;;;-2.01;68.36
62680;BME280;68213;40.528;44.712;2023-02-28T05:30:33;81271.00;;;-2.06;67.84
62680;BME280;68213;40.528;44.712;2023-02-28T05:31:34;81287.41;;;-1.84;67.41
62680;BME280;68213;40.528;44.712;2023-02-28T05:32:35;81281.69;;;-1.77;66.71
62680;BME280;68213;40.528;44.712;2023-02-28T05:33:36;81276.31;;;-1.79;66.25
62680;BME280;68213;40.528;44.712;2023-02-28T05:34:37;81289.34;;;-1.71;66.35
62680;BME280;68213;40.528;44.712;2023-02-28T05:35:40;81288.38;;;-1.68;66.01
62680;BME280;68213;40.528;44.712;2023-02-28T05:36:41;81279.19;;;-1.64;65.91
62680;BME280;68213;40.528;44.712;2023-02-28T05:37:41;81282.81;;;-1.53;65.22
62680;BME280;68213;40.528;44.712;2023-02-28T05:38:42;81282.53;;;-1.50;65.23
62680;BME280;68213;40.528;44.712;2023-02-28T05:40:53;81294.75;;;-1.37;65.10
62680;BME280;68213;40.528;44.712;2023-02-28T05:41:54;81292.41;;;-1.35;64.51
62680;BME280;68213;40.528;44.712;2023-02-28T05:42:55;81290.25;;;-1.31;64.42
62680;BME280;68213;40.528;44.712;2023-02-28T05:43:57;81272.75;;;-1.38;63.71
62680;BME280;68213;40.528;44.712;2023-02-28T05:44:58;81288.34;;;-1.30;63.54
62680;BME280;68213;40.528;44.712;2023-02-28T05:46:01;81292.25;;;-1.23;63.72
62680;BME280;68213;40.528;44.712;2023-02-28T05:47:02;81282.69;;;-1.29;63.62
62680;BME280;68213;40.528;44.712;2023-02-28T05:48:03;81281.50;;;-1.28;63.16
62680;BME280;68213;40.528;44.712;2023-02-28T05:49:03;81288.44;;;-1.36;63.60
62680;BME280;68213;40.528;44.712;2023-02-28T05:50:05;81289.72;;;-1.62;64.09
62680;BME280;68213;40.528;44.712;2023-02-28T05:51:07;81288.94;;;-1.56;63.69
62680;BME280;68213;40.528;44.712;2023-02-28T05:52:08;81290.38;;;-1.42;63.31
62680;BME280;68213;40.528;44.712;2023-02-28T05:53:09;81294.47;;;-1.33;61.94
62680;BME280;68213;40.528;44.712;2023-02-28T05:54:09;81286.88;;;-1.25;61.55
62680;BME280;68213;40.528;44.712;2023-02-28T05:55:10;81289.59;;;-1.18;61.24
62680;BME280;68213;40.528;44.712;2023-02-28T05:56:11;81289.81;;;-1.16;61.40
62680;BME280;68213;40.528;44.712;2023-02-28T05:57:11;81287.78;;;-1.23;60.32
62680;BME280;68213;40.528;44.712;2023-02-28T05:58:12;81282.34;;;-1.19;61.43
62680;BME280;68213;40.528;44.712;2023-02-28T05:59:13;81289.88;;;-1.21;61.69
62680;BME280;68213;40.528;44.712;2023-02-28T06:00:13;81283.47;;;-1.15;61.63
62680;BME280;68213;40.528;44.712;2023-02-28T06:01:22;81290.69;;;-1.13;61.22
62680;BME280;68213;40.528;44.712;2023-02-28T06:02:24;81286.81;;;-1.20;61.65
62680;BME280;68213;40.528;44.712;2023-02-28T06:03:25;81289.31;;;-1.14;60.01
62680;BME280;68213;40.528;44.712;2023-02-28T06:04:26;81290.00;;;-1.14;60.24
62680;BME280;68213;40.528;44.712;2023-02-28T06:05:27;81291.59;;;-1.10;60.39
62680;BME280;68213;40.528;44.712;2023-02-28T06:06:28;81284.13;;;-1.14;59.89
62680;BME280;68213;40.528;44.712;2023-02-28T06:07:29;81284.13;;;-1.14;60.66